Tuesday, April 24, 2018, 4:31 AM EDT
Back to Local

KRME, Griffiss Airfield

Location: Rome, NY, United States Lat: 43.233
Local Time: 4:31 AM EDT ( 8:31 GMT) Lon: -75.4
Time Zone: US/Eastern Elev: 505 ft

Show me the last for .
Show Decoded

2018-04-24 03:53 METAR KRME 240753Z AUTO 10004KT 10SM CLR 09/M03 A3031 RMK AO2 SLP263 T00891028 =
2018-04-24 02:53 METAR KRME 240653Z AUTO 11008KT 10SM CLR 08/M03 A3031 RMK AO2 SLP260 T00831028 =
2018-04-24 01:53 METAR KRME 240553Z AUTO 10007KT 10SM CLR 10/M03 A3031 RMK AO2 SLP263 T01001033
                 10161 20089 53002 =
2018-04-24 00:53 METAR KRME 240453Z AUTO 09007KT 10SM CLR 12/M05 A3031 RMK AO2 SLP263 T01171050
                 402171033 =
2018-04-23 23:53 METAR KRME 240353Z AUTO 12005KT 10SM CLR 10/M04 A3031 RMK AO2 SLP263 T01001044 =
2018-04-23 22:53 METAR KRME 240253Z AUTO 11006KT 10SM CLR 11/M05 A3031 RMK AO2 SLP263 T01111050
                 51008 =
2018-04-23 21:53 METAR KRME 240153Z AUTO 10006KT 10SM CLR 13/M05 A3031 RMK AO2 SLP262 T01331050 =
2018-04-23 20:53 METAR KRME 240053Z 10008KT 10SM CLR 14/M04 A3030 RMK AO2 SLP261 T01441044 =
2018-04-23 19:53 METAR KRME 232353Z 10006KT 10SM CLR 17/M06 A3029 RMK AO2 SLP257 T01671056 10217
                 20167 56012 =
2018-04-23 18:53 METAR KRME 232253Z 17008KT 10SM CLR 21/M11 A3029 RMK AO2 SLP257 T02061111 =
2018-04-23 17:53 METAR KRME 232153Z 20007KT 10SM CLR 21/M12 A3030 RMK AO2 SLP262 T02111122 =
2018-04-23 16:53 METAR KRME 232053Z 20003KT 10SM CLR 21/M10 A3032 RMK AO2 SLP267 T02111100 56026
                 =
2018-04-23 15:53 METAR KRME 231953Z VRB03KT 10SM CLR 21/M08 A3034 RMK AO2 SLP273 T02061078 =
2018-04-23 14:53 METAR KRME 231853Z 16008KT 10SM CLR 20/M07 A3037 RMK AO2 SLP284 T02001072 =
2018-04-23 13:53 METAR KRME 231753Z VRB03KT 10SM CLR 18/M08 A3040 RMK AO2 SLP295 T01831078 10189
                 20011 58024 =
2018-04-23 12:53 METAR KRME 231653Z 15007KT 10SM CLR 17/M08 A3042 RMK AO2 SLP304 T01721083 =
2018-04-23 11:53 METAR KRME 231553Z 18005KT 10SM CLR 16/M11 A3045 RMK AO2 SLP312 T01561106 =
2018-04-23 10:53 METAR KRME 231453Z 15008KT 10SM CLR 14/M09 A3047 RMK AO2 SLP319 T01441089 58008
                 =
2018-04-23 09:53 METAR KRME 231353Z 18004KT 10SM CLR 11/M06 A3049 RMK AO2 SLP326 T01061056 =
2018-04-23 08:53 METAR KRME 231253Z 12005KT 10SM CLR 08/M04 A3049 RMK AO2 SLP328 T00781044 =
2018-04-23 07:53 METAR KRME 231153Z 00000KT 10SM CLR 01/M04 A3049 RMK AO2 SLP328 T00111044 10011
                 21033 51011 =
2018-04-23 06:53 METAR KRME 231053Z 14004KT 10SM CLR M02/M06 A3048 RMK AO2 SLP324 T10171056 =
2018-04-23 05:53 METAR KRME 230953Z AUTO 11004KT 10SM CLR M02/M06 A3047 RMK AO2 SLP320 T10221061
                 =
2018-04-23 04:53 METAR KRME 230853Z AUTO 00000KT 10SM CLR M03/M07 A3046 RMK AO2 SLP317 T10281067
                 53007 =

Support USWX by starting your Amazon purchase here.